Time;durP1;ratioP1;P1;durP2;ratioP2;P2;SDS_P1;SDS_P2;PMS_P1;PMS_P2;Temp;Humidity;BMP_temperature;BMP_pressure;BME280_temperature;BME280_humidity;BME280_pressure;Samples;Min_cycle;Max_cycle;Signal;HPM_P1;HPM_P2
2022/01/02 00:01:43;;;;;;;9.23;8.47;;;10.20;99.90;;;;;;5079361;28;20836;-68
2022/01/02 00:04:17;;;;;;;10.03;9.13;;;10.20;99.90;;;;;;5072745;28;20550;-68
2022/01/02 00:06:50;;;;;;;9.97;9.03;;;10.20;99.90;;;;;;5073816;28;20210;-67
2022/01/02 00:09:31;;;;;;;11.90;9.23;;;10.20;99.90;;;;;;5073114;28;20198;-67
2022/01/02 00:12:13;;;;;;;10.40;9.40;;;10.20;99.90;;;;;;5087258;28;20177;-66
2022/01/02 00:14:46;;;;;;;10.47;9.43;;;10.20;99.90;;;;;;5078185;28;20194;-67
2022/01/02 00:17:16;;;;;;;9.97;8.97;;;10.20;99.90;;;;;;5072882;28;20671;-67
2022/01/02 00:19:51;;;;;;;10.17;9.20;;;10.10;99.90;;;;;;5087156;28;20205;-67
2022/01/02 00:22:19;;;;;;;10.50;9.50;;;10.10;99.90;;;;;;5092823;28;20161;-66
2022/01/02 00:24:45;;;;;;;9.47;8.77;;;10.10;99.90;;;;;;5077891;28;20243;-66
2022/01/02 00:27:13;;;;;;;9.67;8.87;;;10.10;99.90;;;;;;5072624;28;20189;-66
2022/01/02 00:29:41;;;;;;;10.10;9.20;;;10.10;99.90;;;;;;5085001;28;20261;-66
2022/01/02 00:32:08;;;;;;;10.07;9.27;;;10.10;99.90;;;;;;5092250;28;20169;-66
2022/01/02 00:34:35;;;;;;;9.33;8.47;;;10.20;99.90;;;;;;5080230;28;20268;-66
2022/01/02 00:37:02;;;;;;;9.17;8.33;;;10.20;99.90;;;;;;5072454;28;20178;-66
2022/01/02 00:39:28;;;;;;;11.00;9.47;;;10.20;99.90;;;;;;5082624;28;20201;-67
2022/01/02 00:42:09;;;;;;;10.70;9.60;;;10.20;99.90;;;;;;5092300;28;20203;-66
2022/01/02 00:44:43;;;;;;;9.10;8.30;;;10.10;99.90;;;;;;5081318;28;20190;-67
2022/01/02 00:47:47;;;;;;;8.90;8.20;;;10.10;99.90;;;;;;5072196;28;20177;-67
2022/01/02 00:50:15;;;;;;;10.27;9.20;;;10.10;99.90;;;;;;5009970;28;20179;-67
2022/01/02 00:52:44;;;;;;;9.37;8.67;;;10.10;99.90;;;;;;5009699;28;20204;-67
2022/01/02 00:55:21;;;;;;;9.33;8.63;;;10.10;99.90;;;;;;5045922;28;20198;-65
2022/01/02 00:57:56;;;;;;;10.07;9.17;;;10.10;99.90;;;;;;5071800;28;20189;-67
2022/01/02 01:00:23;;;;;;;9.47;8.57;;;10.10;99.90;;;;;;5074491;28;20745;-66
2022/01/02 01:02:52;;;;;;;9.50;8.70;;;10.10;99.90;;;;;;5071445;28;20253;-66
2022/01/02 01:05:22;;;;;;;10.07;9.13;;;10.10;99.90;;;;;;5084677;28;20185;-66
2022/01/02 01:08:07;;;;;;;10.00;9.10;;;10.10;99.90;;;;;;5077810;28;20173;-65
2022/01/02 01:10:35;;;;;;;8.40;7.80;;;10.10;99.90;;;;;;5092119;28;20171;-65
2022/01/02 01:13:04;;;;;;;8.80;8.13;;;10.10;99.90;;;;;;5083899;28;20251;-65
2022/01/02 01:15:31;;;;;;;9.13;8.43;;;10.20;99.90;;;;;;5071893;28;20167;-65
2022/01/02 01:17:58;;;;;;;10.07;9.17;;;10.20;99.90;;;;;;5076636;28;20648;-66
2022/01/02 01:20:27;;;;;;;9.40;8.60;;;10.20;99.90;;;;;;5091842;28;20197;-66
2022/01/02 01:22:53;;;;;;;9.30;8.50;;;10.30;99.90;;;;;;5085691;28;20249;-66
2022/01/02 01:25:20;;;;;;;9.40;8.70;;;10.30;99.90;;;;;;5071587;28;20163;-66
2022/01/02 01:27:47;;;;;;;8.67;7.97;;;10.30;99.90;;;;;;5075053;28;20169;-67
2022/01/02 01:30:15;;;;;;;8.90;8.20;;;10.30;99.90;;;;;;5091601;28;20170;-66
2022/01/02 01:32:41;;;;;;;8.87;8.17;;;10.30;99.90;;;;;;5088264;28;20537;-65
2022/01/02 01:35:08;;;;;;;9.30;8.50;;;10.40;99.90;;;;;;5071474;28;20261;-68
2022/01/02 01:37:34;;;;;;;9.17;8.47;;;10.40;99.90;;;;;;5072607;28;20643;-67
2022/01/02 01:40:00;;;;;;;10.03;9.13;;;10.40;99.90;;;;;;5070968;28;20216;-66
2022/01/02 01:42:36;;;;;;;10.20;9.20;;;10.40;99.90;;;;;;5069933;28;20174;-65
2022/01/02 01:47:33;;;;;;;8.73;8.10;;;10.40;99.90;;;;;;5071457;28;20205;-67
2022/01/02 01:49:59;;;;;;;9.60;8.90;;;10.50;99.90;;;;;;5083384;28;20263;-65
2022/01/02 01:52:25;;;;;;;9.33;8.57;;;10.50;99.90;;;;;;5071086;28;20174;-67
2022/01/02 01:54:51;;;;;;;9.00;8.10;;;10.60;99.90;;;;;;5071026;28;20585;-67
2022/01/02 01:57:17;;;;;;;8.90;8.20;;;10.60;99.90;;;;;;5088753;28;20185;-66
2022/01/02 01:59:45;;;;;;;9.73;8.93;;;10.60;99.90;;;;;;5089866;28;20216;-64
2022/01/02 02:02:12;;;;;;;9.57;8.77;;;10.60;99.90;;;;;;5073026;28;20659;-64
2022/01/02 02:04:37;;;;;;;9.43;8.77;;;10.60;99.90;;;;;;5071100;28;20258;-65
2022/01/02 02:07:03;;;;;;;9.03;8.23;;;10.60;99.90;;;;;;5086863;28;20686;-64
2022/01/02 02:09:39;;;;;;;9.57;8.77;;;10.60;99.90;;;;;;5091322;28;20183;-64
2022/01/02 02:12:05;;;;;;;9.40;8.70;;;10.50;99.90;;;;;;5075040;28;20188;-65
2022/01/02 02:14:32;;;;;;;9.17;8.33;;;10.50;99.90;;;;;;5075897;28;20201;-64
2022/01/02 02:16:58;;;;;;;9.53;8.83;;;10.60;99.90;;;;;;5091186;28;20166;-64
2022/01/02 02:19:24;;;;;;;9.37;8.57;;;10.50;99.90;;;;;;5087359;28;20225;-64
2022/01/02 02:21:49;;;;;;;9.47;8.70;;;10.50;99.90;;;;;;5070853;28;20178;-64
2022/01/02 02:24:15;;;;;;;8.80;8.10;;;10.50;99.90;;;;;;5071788;28;20265;-64
2022/01/02 02:26:41;;;;;;;10.10;9.30;;;10.50;99.90;;;;;;5071182;28;20162;-64
2022/01/02 02:29:06;;;;;;;9.57;8.67;;;10.60;99.90;;;;;;5082043;28;20174;-65
2022/01/02 02:31:32;;;;;;;9.90;8.90;;;10.60;99.90;;;;;;5091038;28;20684;-65
2022/01/02 02:33:57;;;;;;;9.13;8.43;;;10.60;99.90;;;;;;5080848;28;20194;-64
2022/01/02 02:36:23;;;;;;;10.40;9.33;;;10.60;99.90;;;;;;5070902;28;20206;-65
2022/01/02 02:38:49;;;;;;;10.07;9.17;;;10.60;99.90;;;;;;5078129;28;20217;-65
2022/01/02 02:41:14;;;;;;;9.00;8.40;;;10.60;99.90;;;;;;5091021;28;20638;-64
2022/01/02 02:43:50;;;;;;;9.67;8.87;;;10.60;99.90;;;;;;5084520;28;20277;-64
2022/01/02 02:49:01;;;;;;;9.80;8.90;;;10.60;99.90;;;;;;5078578;28;20265;-64
2022/01/02 02:51:45;;;;;;;9.53;8.73;;;10.50;99.90;;;;;;5091603;28;20173;-64
2022/01/02 02:54:17;;;;;;;9.63;8.73;;;10.60;99.90;;;;;;5084975;28;20233;-64
2022/01/02 02:56:53;;;;;;;9.53;8.77;;;10.60;99.90;;;;;;5074191;28;20178;-65
2022/01/02 02:59:19;;;;;;;9.27;8.53;;;10.70;99.90;;;;;;5083684;28;20205;-65
2022/01/02 03:01:45;;;;;;;8.83;8.03;;;10.70;99.90;;;;;;5094698;28;20261;-65
2022/01/02 03:04:10;;;;;;;9.67;8.77;;;10.70;99.90;;;;;;5085913;28;20202;-65
2022/01/02 03:06:36;;;;;;;9.27;8.57;;;10.70;99.90;;;;;;5074502;28;20171;-65
2022/01/02 03:09:08;;;;;;;9.37;8.67;;;10.60;99.90;;;;;;5079892;28;20654;-65
2022/01/02 03:11:35;;;;;;;10.27;9.47;;;10.70;99.90;;;;;;5094549;28;20280;-65
2022/01/02 03:14:00;;;;;;;10.00;9.10;;;10.70;99.90;;;;;;5088007;28;20666;-65
2022/01/02 03:16:26;;;;;;;9.30;8.57;;;10.60;99.90;;;;;;5074069;28;20193;-65
2022/01/02 03:18:51;;;;;;;9.43;8.63;;;10.60;99.90;;;;;;5074868;28;20169;-65
2022/01/02 03:21:17;;;;;;;9.47;8.77;;;10.60;99.90;;;;;;5073881;28;20251;-65
2022/01/02 03:23:43;;;;;;;10.00;9.10;;;10.60;99.90;;;;;;5074853;28;20204;-65
2022/01/02 03:26:09;;;;;;;9.80;8.90;;;10.60;99.90;;;;;;5093999;28;20177;-65
2022/01/02 03:28:35;;;;;;;9.83;9.13;;;10.60;99.90;;;;;;5093519;28;20266;-65
2022/01/02 03:31:01;;;;;;;10.53;9.57;;;10.60;99.90;;;;;;5073509;28;20198;-65
2022/01/02 03:33:26;;;;;;;9.60;8.77;;;10.60;99.90;;;;;;5073277;28;20190;-65
2022/01/02 03:35:52;;;;;;;9.33;8.63;;;10.60;99.90;;;;;;5091800;28;20192;-65
2022/01/02 03:38:18;;;;;;;9.60;8.60;;;10.60;99.90;;;;;;5092333;28;20594;-65
2022/01/02 03:40:44;;;;;;;9.63;8.80;;;10.50;99.90;;;;;;5076398;28;20256;-65
2022/01/02 03:43:09;;;;;;;9.90;9.00;;;10.50;99.90;;;;;;5073067;28;20308;-65
2022/01/02 03:45:35;;;;;;;10.50;9.60;;;10.50;99.90;;;;;;5084134;28;20292;-65
2022/01/02 03:48:01;;;;;;;10.03;9.10;;;10.50;99.90;;;;;;5073291;28;20686;-65
2022/01/02 03:50:26;;;;;;;9.73;8.97;;;10.50;99.90;;;;;;5086502;28;20588;-65
2022/01/02 03:52:52;;;;;;;9.80;8.90;;;10.40;99.90;;;;;;5092936;28;20193;-65
2022/01/02 03:55:18;;;;;;;9.50;8.80;;;10.40;99.90;;;;;;5081572;28;20243;-65
2022/01/02 03:57:44;;;;;;;10.90;9.90;;;10.40;99.90;;;;;;5073112;28;20193;-65
2022/01/02 04:00:13;;;;;;;9.00;8.20;;;10.30;99.90;;;;;;5082800;28;20216;-65
2022/01/02 04:02:39;;;;;;;9.97;9.10;;;10.30;99.90;;;;;;5093020;28;20173;-65
2022/01/02 04:05:10;;;;;;;8.57;7.87;;;10.30;99.90;;;;;;5082767;28;20710;-65
2022/01/02 04:07:36;;;;;;;10.60;9.63;;;10.30;99.90;;;;;;5073139;28;20175;-65
2022/01/02 04:10:06;;;;;;;8.87;8.13;;;10.30;99.90;;;;;;5080398;28;20231;-65
2022/01/02 04:12:32;;;;;;;11.03;10.03;;;10.30;99.90;;;;;;5092899;28;20173;-65
2022/01/02 04:14:58;;;;;;;9.80;9.00;;;10.30;99.90;;;;;;5075659;28;20576;-65
2022/01/02 04:17:23;;;;;;;10.27;9.33;;;10.30;99.90;;;;;;5072757;28;20174;-65
2022/01/02 04:19:50;;;;;;;10.10;9.20;;;10.30;99.90;;;;;;5087487;28;20795;-65
2022/01/02 04:22:17;;;;;;;9.97;9.10;;;10.30;99.90;;;;;;5092546;28;20181;-65
2022/01/02 04:24:42;;;;;;;9.30;8.60;;;10.30;99.90;;;;;;5078700;28;20233;-65
2022/01/02 04:27:08;;;;;;;10.17;9.17;;;10.30;99.90;;;;;;5075163;28;20185;-65
2022/01/02 04:29:34;;;;;;;14.03;10.03;;;10.30;99.90;;;;;;5092693;28;20174;-65
2022/01/02 04:31:59;;;;;;;11.43;10.33;;;10.30;99.90;;;;;;5090894;28;20519;-65
2022/01/02 04:34:25;;;;;;;10.87;9.97;;;10.30;99.90;;;;;;5072198;28;20591;-65
2022/01/02 04:36:51;;;;;;;10.90;10.00;;;10.30;99.90;;;;;;5072264;28;20249;-65
2022/01/02 04:39:17;;;;;;;10.37;9.47;;;10.30;99.90;;;;;;5091533;28;20291;-65
2022/01/02 04:41:42;;;;;;;10.37;9.30;;;10.30;99.90;;;;;;5092495;28;20170;-65
2022/01/02 04:44:08;;;;;;;10.40;9.50;;;10.30;99.90;;;;;;5080422;28;20247;-65
2022/01/02 04:46:34;;;;;;;10.37;8.90;;;10.30;99.90;;;;;;5091135;28;20248;-65
2022/01/02 04:48:59;;;;;;;12.30;10.20;;;10.30;99.90;;;;;;5075918;28;20186;-65
2022/01/02 04:51:25;;;;;;;10.80;9.80;;;10.20;99.90;;;;;;5072095;28;20684;-65
2022/01/02 04:53:50;;;;;;;11.43;10.37;;;10.20;99.90;;;;;;5085670;28;20575;-65
2022/01/02 04:56:16;;;;;;;11.20;10.20;;;10.20;99.90;;;;;;5092154;28;20205;-66
2022/01/02 04:58:43;;;;;;;10.47;9.47;;;10.20;99.90;;;;;;5078023;28;20666;-66
2022/01/02 05:01:11;;;;;;;10.80;9.80;;;10.20;99.90;;;;;;5071944;28;20706;-65
2022/01/02 05:03:41;;;;;;;14.03;11.37;;;10.20;99.90;;;;;;5083002;28;20223;-66
2022/01/02 05:06:07;;;;;;;11.47;10.40;;;10.20;99.90;;;;;;5077048;28;20603;-66
2022/01/02 05:08:34;;;;;;;10.70;9.70;;;10.10;99.90;;;;;;5081961;28;20185;-65
2022/01/02 05:10:59;;;;;;;11.43;10.43;;;10.10;99.90;;;;;;5091960;28;20627;-65
2022/01/02 05:13:25;;;;;;;13.33;11.40;;;10.10;99.90;;;;;;5083240;28;20209;-66
2022/01/02 05:15:51;;;;;;;11.33;10.23;;;10.10;99.90;;;;;;5071153;28;20178;-66
2022/01/02 05:18:16;;;;;;;10.97;9.87;;;10.10;99.90;;;;;;5072658;28;20239;-65
2022/01/02 05:20:46;;;;;;;12.40;11.03;;;10.10;99.90;;;;;;5071685;28;20210;-65
2022/01/02 05:23:14;;;;;;;11.50;10.40;;;10.10;99.90;;;;;;5076582;28;20263;-65
2022/01/02 05:25:40;;;;;;;12.73;10.57;;;10.10;99.90;;;;;;5091884;28;20181;-65
2022/01/02 05:28:06;;;;;;;11.77;10.30;;;10.10;99.90;;;;;;5087073;28;20539;-65
2022/01/02 05:30:31;;;;;;;10.70;9.67;;;10.10;99.90;;;;;;5071644;28;20215;-65
2022/01/02 05:32:57;;;;;;;11.43;10.33;;;10.10;99.90;;;;;;5073339;28;20757;-65
2022/01/02 05:35:23;;;;;;;15.03;10.03;;;10.10;99.90;;;;;;5091808;28;20184;-65
2022/01/02 05:37:48;;;;;;;11.30;10.13;;;10.10;99.90;;;;;;5090579;28;20634;-65
2022/01/02 05:40:14;;;;;;;12.23;9.47;;;10.10;99.90;;;;;;5071363;28;20269;-65
2022/01/02 05:42:39;;;;;;;13.03;10.30;;;10.10;99.90;;;;;;5071032;28;20182;-65
2022/01/02 05:45:05;;;;;;;11.83;10.33;;;10.10;99.90;;;;;;5072480;28;20182;-65
2022/01/02 05:47:31;;;;;;;10.70;9.63;;;10.10;99.90;;;;;;5084006;28;20177;-65
2022/01/02 05:49:57;;;;;;;11.53;10.13;;;10.10;99.90;;;;;;5091450;28;20203;-65
2022/01/02 05:52:22;;;;;;;12.40;10.87;;;10.10;99.90;;;;;;5077408;28;20641;-65
2022/01/02 05:54:48;;;;;;;11.73;10.53;;;10.10;99.90;;;;;;5071024;28;20217;-65
2022/01/02 05:57:13;;;;;;;12.13;10.83;;;10.10;99.90;;;;;;5079139;28;20181;-64
2022/01/02 05:59:40;;;;;;;12.77;10.47;;;10.10;99.90;;;;;;5075925;28;20206;-64
2022/01/02 06:02:06;;;;;;;12.47;10.33;;;10.10;99.90;;;;;;5071017;28;20646;-64
2022/01/02 06:04:31;;;;;;;12.23;10.33;;;10.10;99.90;;;;;;5079904;28;20197;-64
2022/01/02 06:06:57;;;;;;;12.47;10.07;;;10.10;99.90;;;;;;5091473;28;20178;-65
2022/01/02 06:09:23;;;;;;;11.90;10.67;;;10.20;99.90;;;;;;5084033;28;20588;-65
2022/01/02 06:11:48;;;;;;;11.40;9.90;;;10.10;99.90;;;;;;5071125;28;20570;-66
2022/01/02 06:14:16;;;;;;;11.60;10.50;;;10.20;99.90;;;;;;5087674;28;20202;-64
2022/01/02 06:16:41;;;;;;;10.90;9.90;;;10.20;99.90;;;;;;5091344;28;20173;-64
2022/01/02 06:19:07;;;;;;;11.23;10.13;;;10.10;99.90;;;;;;5075363;28;20210;-64
2022/01/02 06:21:33;;;;;;;11.03;10.03;;;10.10;99.90;;;;;;5069887;28;20189;-65
2022/01/02 06:23:58;;;;;;;11.87;10.77;;;10.10;99.90;;;;;;5083155;28;20216;-64
2022/01/02 06:26:24;;;;;;;12.73;11.47;;;10.10;99.90;;;;;;5091782;28;20503;-64
2022/01/02 06:28:49;;;;;;;11.87;10.67;;;10.10;99.90;;;;;;5081800;28;20237;-64
2022/01/02 06:31:15;;;;;;;12.37;10.87;;;10.10;99.90;;;;;;5075184;28;20582;-65
2022/01/02 06:33:41;;;;;;;11.90;10.50;;;10.10;99.90;;;;;;5082916;28;20198;-64
2022/01/02 06:36:06;;;;;;;10.87;9.87;;;10.10;99.90;;;;;;5094735;28;20310;-64
2022/01/02 06:38:32;;;;;;;11.30;10.20;;;10.10;99.90;;;;;;5075779;28;20670;-63
2022/01/02 06:40:57;;;;;;;10.37;9.37;;;10.10;99.90;;;;;;5074515;28;20205;-65
2022/01/02 06:43:23;;;;;;;10.67;9.77;;;10.10;99.90;;;;;;5075344;28;20202;-64
2022/01/02 06:45:49;;;;;;;11.73;10.17;;;10.10;99.90;;;;;;5074548;28;20304;-64
2022/01/02 06:48:14;;;;;;;11.73;10.53;;;10.10;99.90;;;;;;5089453;28;20184;-65
2022/01/02 06:50:40;;;;;;;16.53;10.57;;;10.10;99.90;;;;;;5094894;28;20639;-64
2022/01/02 06:53:06;;;;;;;11.70;10.60;;;10.10;99.90;;;;;;5081246;28;20241;-65
2022/01/02 06:55:32;;;;;;;13.77;10.67;;;10.10;99.90;;;;;;5074459;28;20178;-68
2022/01/02 06:57:57;;;;;;;10.97;10.07;;;10.10;99.90;;;;;;5085530;28;20541;-69
2022/01/02 07:00:24;;;;;;;10.77;9.77;;;10.10;99.90;;;;;;5094566;28;20205;-67
2022/01/02 07:02:50;;;;;;;12.17;10.50;;;10.10;99.90;;;;;;5084397;28;20257;-65
2022/01/02 07:05:15;;;;;;;11.73;10.53;;;10.10;99.90;;;;;;5074335;28;20282;-63
2022/01/02 07:07:43;;;;;;;12.50;10.60;;;10.20;99.90;;;;;;5080557;28;20593;-64
2022/01/02 07:10:14;;;;;;;10.93;9.77;;;10.20;99.90;;;;;;5094092;28;20197;-64
2022/01/02 07:12:40;;;;;;;10.80;9.90;;;10.20;99.90;;;;;;5088099;28;20181;-64
2022/01/02 07:15:09;;;;;;;9.97;8.97;;;10.20;99.90;;;;;;5094397;28;20627;-65
2022/01/02 07:17:35;;;;;;;10.60;9.60;;;10.20;99.90;;;;;;5086382;28;20195;-64
2022/01/02 07:20:03;;;;;;;10.30;9.40;;;10.20;99.90;;;;;;5094076;28;20698;-65
2022/01/02 07:22:29;;;;;;;10.10;9.23;;;10.20;99.90;;;;;;5081297;28;20217;-65
2022/01/02 07:24:55;;;;;;;10.47;9.53;;;10.20;99.90;;;;;;5073994;28;20636;-68
2022/01/02 07:27:21;;;;;;;9.63;8.60;;;10.20;99.90;;;;;;5082567;28;20235;-67
2022/01/02 07:29:48;;;;;;;10.63;8.33;;;10.20;99.90;;;;;;5093792;28;20271;-65
2022/01/02 07:32:14;;;;;;;9.90;8.90;;;10.20;99.90;;;;;;5085691;28;20186;-64
2022/01/02 07:34:40;;;;;;;10.17;9.10;;;10.20;99.90;;;;;;5074746;28;20194;-64
2022/01/02 07:37:05;;;;;;;10.13;9.13;;;10.30;99.90;;;;;;5091963;28;20188;-65
2022/01/02 07:39:31;;;;;;;9.73;8.73;;;10.30;99.90;;;;;;5093569;28;20201;-66
2022/01/02 07:41:56;;;;;;;9.57;8.67;;;10.30;99.90;;;;;;5073392;28;20244;-66
2022/01/02 07:44:22;;;;;;;9.50;8.70;;;10.30;99.90;;;;;;5073126;28;20198;-65
2022/01/02 07:46:48;;;;;;;9.43;8.63;;;10.30;99.90;;;;;;5091050;28;20189;-66
2022/01/02 07:49:13;;;;;;;10.00;9.10;;;10.30;99.90;;;;;;5093376;28;20174;-65
2022/01/02 07:51:39;;;;;;;9.93;8.60;;;10.30;99.90;;;;;;5077339;28;20198;-66
2022/01/02 07:54:05;;;;;;;10.60;9.60;;;10.30;99.90;;;;;;5072431;28;20719;-65
2022/01/02 07:56:30;;;;;;;9.97;9.00;;;10.30;99.90;;;;;;5086997;28;20264;-65
2022/01/02 07:58:58;;;;;;;10.07;9.07;;;10.40;99.90;;;;;;5093060;28;20513;-65
2022/01/02 08:01:24;;;;;;;9.83;9.03;;;10.40;99.90;;;;;;5080535;28;20189;-65
2022/01/02 08:03:51;;;;;;;8.97;8.33;;;10.40;99.90;;;;;;5072781;28;20232;-66
2022/01/02 08:06:16;;;;;;;9.23;8.53;;;10.40;99.90;;;;;;5083203;28;20218;-66
2022/01/02 08:08:42;;;;;;;10.10;9.30;;;10.40;99.90;;;;;;5093005;28;20165;-65
2022/01/02 08:11:08;;;;;;;9.50;8.80;;;10.50;99.90;;;;;;5083417;28;20185;-66
2022/01/02 08:13:34;;;;;;;9.77;8.90;;;10.50;99.90;;;;;;5071361;28;20251;-66
2022/01/02 08:15:59;;;;;;;10.23;9.13;;;10.50;99.90;;;;;;5078378;28;20654;-66
2022/01/02 08:18:25;;;;;;;9.37;8.47;;;10.60;99.90;;;;;;5092968;28;20285;-66
2022/01/02 08:20:50;;;;;;;10.90;10.00;;;10.60;99.90;;;;;;5086945;28;20206;-65
2022/01/02 08:23:16;;;;;;;10.13;9.07;;;10.60;99.90;;;;;;5072181;28;20273;-65
2022/01/02 08:25:42;;;;;;;10.17;9.30;;;10.60;99.90;;;;;;5076008;28;20707;-65
2022/01/02 08:28:07;;;;;;;9.80;8.37;;;10.60;99.90;;;;;;5091001;28;20746;-65
2022/01/02 08:30:33;;;;;;;9.07;8.37;;;10.60;99.90;;;;;;5082019;28;20189;-65
2022/01/02 08:32:59;;;;;;;9.17;8.43;;;10.70;99.90;;;;;;5071932;28;20220;-65
2022/01/02 08:35:25;;;;;;;9.07;8.37;;;10.70;99.90;;;;;;5079510;28;20176;-65
2022/01/02 08:37:50;;;;;;;10.40;8.13;;;10.70;99.90;;;;;;5092464;28;20247;-65
2022/01/02 08:40:16;;;;;;;10.33;8.87;;;10.70;99.90;;;;;;5085450;28;20245;-65
2022/01/02 08:42:42;;;;;;;9.90;9.00;;;10.70;99.90;;;;;;5071838;28;20643;-65
2022/01/02 08:45:08;;;;;;;9.93;9.07;;;10.70;99.90;;;;;;5076761;28;20177;-65
2022/01/02 08:47:34;;;;;;;8.17;7.40;;;10.80;99.90;;;;;;5092402;28;20172;-65
2022/01/02 08:49:59;;;;;;;8.93;8.20;;;10.80;99.90;;;;;;5088207;28;20186;-65
2022/01/02 08:52:25;;;;;;;9.60;8.60;;;10.90;99.90;;;;;;5071856;28;20197;-65
2022/01/02 08:54:51;;;;;;;9.57;8.77;;;10.90;99.90;;;;;;5086145;28;20212;-65
2022/01/02 08:57:17;;;;;;;9.27;8.37;;;10.80;99.90;;;;;;5092459;28;20173;-65
2022/01/02 08:59:43;;;;;;;9.00;8.30;;;10.80;99.90;;;;;;5089511;28;20205;-67
2022/01/02 09:02:09;;;;;;;8.53;7.93;;;10.80;99.90;;;;;;5091683;28;20631;-67
2022/01/02 09:04:34;;;;;;;9.03;8.33;;;10.70;99.90;;;;;;5086166;28;20284;-66
2022/01/02 09:07:01;;;;;;;8.70;8.07;;;10.70;99.90;;;;;;5091957;28;20248;-65
2022/01/02 09:09:27;;;;;;;8.07;7.30;;;10.70;99.90;;;;;;5075900;28;20332;-65
2022/01/02 09:11:53;;;;;;;8.03;7.33;;;10.80;99.90;;;;;;5071635;28;20204;-65
2022/01/02 09:14:19;;;;;;;8.80;8.10;;;10.80;99.90;;;;;;5071177;28;20228;-65
2022/01/02 09:16:45;;;;;;;7.30;6.80;;;10.90;99.90;;;;;;5071606;28;20170;-65
2022/01/02 09:19:12;;;;;;;6.93;6.43;;;11.00;99.90;;;;;;5081145;28;20205;-65
2022/01/02 09:21:38;;;;;;;7.47;7.00;;;11.10;99.90;;;;;;5078296;28;20170;-65
2022/01/02 09:24:04;;;;;;;7.57;7.07;;;11.20;99.90;;;;;;5080514;28;20208;-65
2022/01/02 09:26:30;;;;;;;7.20;6.70;;;11.30;99.90;;;;;;5091503;28;20560;-65
2022/01/02 09:28:56;;;;;;;7.03;6.63;;;11.50;99.90;;;;;;5083392;28;20170;-65
2022/01/02 09:31:22;;;;;;;7.10;6.70;;;11.60;99.90;;;;;;5071590;28;20543;-66
2022/01/02 09:33:48;;;;;;;6.97;6.57;;;11.80;99.90;;;;;;5072365;28;20201;-64
2022/01/02 09:36:14;;;;;;;6.90;6.50;;;11.90;99.90;;;;;;5071417;28;20169;-67
2022/01/02 09:38:40;;;;;;;7.13;6.70;;;12.00;99.90;;;;;;5075830;28;20213;-64
2022/01/02 09:41:05;;;;;;;7.57;7.00;;;12.10;99.90;;;;;;5091413;28;20197;-66
2022/01/02 09:43:31;;;;;;;7.23;6.63;;;12.10;99.90;;;;;;5088343;28;20196;-65
2022/01/02 09:45:59;;;;;;;6.77;6.27;;;12.20;99.90;;;;;;5071173;28;20193;-65
2022/01/02 09:48:26;;;;;;;7.13;6.73;;;12.30;99.90;;;;;;5072290;28;20208;-65
2022/01/02 09:50:52;;;;;;;7.00;6.50;;;12.40;99.90;;;;;;5091353;28;20177;-65
2022/01/02 09:53:18;;;;;;;6.90;6.40;;;12.40;99.90;;;;;;5090708;28;20687;-66
2022/01/02 09:55:44;;;;;;;6.57;6.17;;;12.50;99.90;;;;;;5090308;28;20618;-65
2022/01/02 09:58:12;;;;;;;6.97;6.43;;;12.50;99.90;;;;;;5089978;28;20269;-65
2022/01/02 10:00:40;;;;;;;9.07;8.40;;;12.60;99.90;;;;;;5073348;28;20210;-65
2022/01/02 10:03:08;;;;;;;7.30;6.80;;;12.80;99.90;;;;;;5074773;28;20212;-65
2022/01/02 10:05:56;;;;;;;6.27;5.87;;;12.80;99.90;;;;;;5087587;28;20178;-65
2022/01/02 10:08:31;;;;;;;6.67;6.27;;;13.00;99.90;;;;;;5075152;28;20532;-65
2022/01/02 10:11:12;;;;;;;6.90;6.50;;;13.10;99.90;;;;;;5075302;28;20698;-64
2022/01/02 10:13:42;;;;;;;6.57;6.17;;;13.10;99.90;;;;;;5074861;28;20282;-65
2022/01/02 10:16:21;;;;;;;5.90;5.60;;;13.20;99.90;;;;;;5074996;28;20182;-68
2022/01/02 10:18:48;;;;;;;5.97;5.67;;;13.20;99.90;;;;;;5075009;28;20643;-65
2022/01/02 10:21:36;;;;;;;5.90;5.53;;;13.20;99.90;;;;;;5074714;28;20166;-64
2022/01/02 10:24:33;;;;;;;6.00;5.70;;;13.30;99.90;;;;;;5074462;28;20193;-65
2022/01/02 10:27:16;;;;;;;6.50;6.00;;;13.50;99.90;;;;;;5063398;28;20178;-65
2022/01/02 10:29:42;;;;;;;5.77;5.40;;;13.70;99.90;;;;;;5074851;28;20665;-65
2022/01/02 10:32:38;;;;;;;5.73;5.43;;;14.00;99.90;;;;;;5081268;28;20266;-65
2022/01/02 10:35:11;;;;;;;6.23;5.87;;;14.40;99.90;;;;;;5073266;28;20591;-65
2022/01/02 10:37:38;;;;;;;7.37;6.77;;;14.70;99.90;;;;;;5080871;28;20196;-65
2022/01/02 10:40:04;;;;;;;6.10;5.60;;;15.00;99.90;;;;;;5090557;28;20791;-65
2022/01/02 10:42:42;;;;;;;6.60;5.97;;;15.30;99.90;;;;;;5083698;28;20186;-65
2022/01/02 10:45:08;;;;;;;6.10;5.80;;;15.40;99.90;;;;;;5078535;28;20182;-65
2022/01/02 10:47:33;;;;;;;6.00;5.50;;;15.40;99.90;;;;;;5069927;28;20316;-66
2022/01/02 10:50:11;;;;;;;6.47;5.87;;;15.20;99.90;;;;;;5079054;28;20185;-66
2022/01/02 10:52:42;;;;;;;5.80;5.50;;;15.20;99.90;;;;;;5085054;28;20203;-65
2022/01/02 10:55:20;;;;;;;6.80;6.40;;;15.30;99.90;;;;;;5076072;28;20723;-65
2022/01/02 10:57:49;;;;;;;6.03;5.50;;;15.60;99.90;;;;;;5072940;28;20306;-65
2022/01/02 11:00:16;;;;;;;6.17;5.77;;;16.10;99.90;;;;;;5088686;28;20537;-65
2022/01/02 11:02:43;;;;;;;7.40;6.70;;;16.30;99.90;;;;;;5073656;28;20704;-65
2022/01/02 11:05:11;;;;;;;6.57;6.10;;;16.50;99.90;;;;;;5079184;28;20177;-64
2022/01/02 11:07:41;;;;;;;5.53;5.13;;;16.40;99.90;;;;;;5094399;28;20295;-65
2022/01/02 11:10:09;;;;;;;6.90;6.20;;;16.10;99.90;;;;;;5087878;28;20185;-64
2022/01/02 11:12:38;;;;;;;6.83;6.33;;;16.20;99.90;;;;;;5071544;28;20182;-65
2022/01/02 11:15:06;;;;;;;6.73;6.03;;;16.40;99.90;;;;;;5078473;28;20181;-65
2022/01/02 11:17:35;;;;;;;5.90;5.60;;;16.80;99.90;;;;;;5094231;28;20618;-65
2022/01/02 11:20:07;;;;;;;7.97;6.33;;;17.00;99.90;;;;;;5089725;28;20730;-65
2022/01/02 11:23:09;;;;;;;7.87;6.40;;;16.80;99.90;;;;;;5073771;28;20251;-65
2022/01/02 11:25:46;;;;;;;6.20;5.80;;;16.50;99.90;;;;;;5081627;28;20188;-65
2022/01/02 11:28:38;;;;;;;5.97;5.50;;;16.20;99.90;;;;;;5093919;28;20169;-65
2022/01/02 11:31:06;;;;;;;6.73;6.23;;;15.90;99.90;;;;;;5092163;28;20185;-65
2022/01/02 11:33:40;;;;;;;6.67;5.80;;;15.60;99.90;;;;;;5093489;28;20193;-64
2022/01/02 11:36:27;;;;;;;6.27;5.70;;;15.30;99.90;;;;;;5073560;28;20193;-65
2022/01/02 11:39:10;;;;;;;7.40;6.70;;;15.10;99.90;;;;;;5074571;28;20516;-65
2022/01/02 11:41:48;;;;;;;6.57;6.17;;;14.90;99.90;;;;;;5093783;28;20170;-67
2022/01/02 11:44:15;;;;;;;6.80;6.20;;;14.70;99.90;;;;;;5089363;28;20198;-65
2022/01/02 11:46:54;;;;;;;7.97;7.13;;;14.60;99.90;;;;;;5073162;28;20190;-65
2022/01/02 11:49:23;;;;;;;7.53;6.90;;;14.50;99.90;;;;;;5077199;28;20177;-66
2022/01/02 11:51:51;;;;;;;7.07;6.40;;;14.50;99.90;;;;;;5093509;28;20182;-66
2022/01/02 11:54:32;;;;;;;7.60;6.90;;;14.30;99.90;;;;;;5085894;28;20210;-65
2022/01/02 11:56:59;;;;;;;7.43;6.60;;;14.30;99.90;;;;;;5082339;28;20181;-64
2022/01/02 11:59:40;;;;;;;6.93;6.43;;;14.30;99.90;;;;;;5074689;28;20659;-64
2022/01/02 12:02:20;;;;;;;8.03;7.13;;;14.20;99.90;;;;;;5081957;28;20173;-64
2022/01/02 12:05:02;;;;;;;11.67;9.83;;;14.20;99.90;;;;;;5085797;28;20188;-64
2022/01/02 12:07:37;;;;;;;6.97;6.17;;;14.20;99.90;;;;;;5093576;28;20166;-66
2022/01/02 12:10:19;;;;;;;7.23;6.43;;;14.10;99.90;;;;;;5081156;28;20186;-66
2022/01/02 12:12:57;;;;;;;7.50;6.80;;;14.10;99.90;;;;;;5084893;28;20177;-65
2022/01/02 12:15:43;;;;;;;8.37;6.73;;;14.00;99.90;;;;;;5083934;28;20226;-65
2022/01/02 12:18:31;;;;;;;10.77;7.83;;;14.10;99.90;;;;;;5064861;28;20228;-66
2022/01/02 12:20:57;;;;;;;7.07;6.50;;;14.10;99.90;;;;;;5089407;28;20205;-66
2022/01/02 12:23:41;;;;;;;7.20;6.70;;;14.10;99.90;;;;;;5083040;28;20198;-66
2022/01/02 12:26:11;;;;;;;5.87;5.50;;;14.10;99.90;;;;;;5073435;28;20189;-66
2022/01/02 12:28:44;;;;;;;6.80;6.10;;;14.00;99.90;;;;;;5092650;28;20184;-65
2022/01/02 12:31:12;;;;;;;6.53;6.03;;;14.00;99.90;;;;;;5087458;28;20181;-65
2022/01/02 12:33:38;;;;;;;7.40;6.90;;;14.10;99.90;;;;;;5092285;28;20194;-65
2022/01/02 12:36:12;;;;;;;6.30;5.90;;;14.10;99.90;;;;;;5086307;28;20251;-66
2022/01/02 12:38:55;;;;;;;6.07;5.57;;;14.10;99.90;;;;;;5072143;28;20181;-66
2022/01/02 12:41:23;;;;;;;7.23;5.90;;;14.10;99.90;;;;;;5073761;28;20248;-64
2022/01/02 12:44:01;;;;;;;6.87;6.13;;;14.20;99.90;;;;;;5078030;28;20205;-65
2022/01/02 12:46:39;;;;;;;5.83;5.43;;;14.30;99.90;;;;;;5082306;28;20181;-65
2022/01/02 12:49:11;;;;;;;6.27;5.60;;;14.30;99.90;;;;;;5092299;28;20173;-65
2022/01/02 12:51:40;;;;;;;6.00;5.70;;;14.30;99.90;;;;;;5083364;28;20523;-65
2022/01/02 12:54:12;;;;;;;6.50;6.00;;;14.30;99.90;;;;;;5083226;28;20212;-66